Time;durP1;ratioP1;P1;durP2;ratioP2;P2;SDS_P1;SDS_P2;PMS_P1;PMS_P2;Temp;Humidity;BMP_temperature;BMP_pressure;BME280_temperature;BME280_humidity;BME280_pressure;Samples;Min_cycle;Max_cycle;Signal;HPM_P1;HPM_P2
2022/08/03 00:01:42;63989.00;0.21;111.37;0.00;0.00;0.62;;;;;25.00;1.00;;;;;;2265578;61;1068;-82
2022/08/03 00:04:10;0.00;0.00;0.62;0.00;0.00;0.62;;;;;24.90;1.00;;;;;;2265409;61;1381;-82
2022/08/03 00:06:38;0.00;0.00;0.62;0.00;0.00;0.62;;;;;24.90;1.00;;;;;;2265349;61;2033;-82
2022/08/03 00:09:06;30432.00;0.10;53.33;0.00;0.00;0.62;;;;;25.10;1.00;;;;;;2265432;61;1243;-82
2022/08/03 00:11:33;0.00;0.00;0.62;0.00;0.00;0.62;;;;;25.10;1.00;;;;;;2268001;61;1257;-83
2022/08/03 00:14:00;0.00;0.00;0.62;0.00;0.00;0.62;;;;;25.20;1.00;;;;;;2270901;61;1372;-82
2022/08/03 00:16:28;24024.00;0.08;42.24;0.00;0.00;0.62;;;;;25.10;1.00;;;;;;2268975;61;1223;-80
2022/08/03 00:18:55;0.00;0.00;0.62;0.00;0.00;0.62;;;;;25.30;1.00;;;;;;2266047;61;1259;-82
2022/08/03 00:21:22;0.00;0.00;0.62;0.00;0.00;0.62;;;;;25.30;1.00;;;;;;2266414;61;1165;-81
2022/08/03 00:23:48;0.00;0.00;0.62;0.00;0.00;0.62;;;;;25.30;1.00;;;;;;2265943;61;1317;-82
2022/08/03 00:26:15;0.00;0.00;0.62;0.00;0.00;0.62;;;;;25.40;1.00;;;;;;2266148;61;1129;-83
2022/08/03 00:28:42;0.00;0.00;0.62;0.00;0.00;0.62;;;;;25.30;1.00;;;;;;2265836;61;1940;-83
2022/08/03 00:31:09;35972.00;0.12;62.92;0.00;0.00;0.62;;;;;25.40;1.00;;;;;;2266176;61;2165;-82
2022/08/03 00:33:37;120456.00;0.40;208.87;0.00;0.00;0.62;;;;;25.30;1.00;;;;;;2265776;61;1304;-82
2022/08/03 00:36:04;7315.00;0.02;13.30;0.00;0.00;0.62;;;;;25.00;1.00;;;;;;2265934;61;1121;-82
2022/08/03 00:38:31;0.00;0.00;0.62;0.00;0.00;0.62;;;;;25.00;1.00;;;;;;2265748;61;1038;-82
2022/08/03 00:40:58;71220.00;0.24;123.87;0.00;0.00;0.62;;;;;25.00;1.00;;;;;;2265970;61;1174;-81
2022/08/03 00:43:26;0.00;0.00;0.62;0.00;0.00;0.62;;;;;24.90;1.00;;;;;;2265869;61;1382;-81
2022/08/03 00:45:53;0.00;0.00;0.62;0.00;0.00;0.62;;;;;24.90;1.00;;;;;;2269335;61;1271;-82
2022/08/03 00:48:21;0.00;0.00;0.62;0.00;0.00;0.62;;;;;25.00;1.00;;;;;;2269345;61;1919;-81
2022/08/03 00:50:49;91031.00;0.30;158.09;0.00;0.00;0.62;;;;;24.80;1.00;;;;;;2266012;61;1048;-81
2022/08/03 00:53:16;0.00;0.00;0.62;0.00;0.00;0.62;;;;;24.90;1.00;;;;;;2265754;61;1249;-81
2022/08/03 00:55:43;175458.00;0.58;303.67;27544.00;0.09;48.33;;;;;24.90;1.00;;;;;;2266248;61;1117;-81
2022/08/03 00:58:10;0.00;0.00;0.62;0.00;0.00;0.62;;;;;25.10;1.00;;;;;;2266072;61;1124;-81
2022/08/03 01:00:39;96124.00;0.32;166.88;0.00;0.00;0.62;;;;;25.30;1.00;;;;;;2265775;61;1176;-81
2022/08/03 01:03:06;0.00;0.00;0.62;0.00;0.00;0.62;;;;;25.30;1.00;;;;;;2265575;61;1364;-81
2022/08/03 01:05:41;0.00;0.00;0.62;0.00;0.00;0.62;;;;;25.10;1.00;;;;;;2265643;61;1090;-81
2022/08/03 01:08:19;192569.00;0.64;333.13;23453.00;0.08;41.25;;;;;25.10;1.00;;;;;;2266104;61;2000;-81
2022/08/03 01:11:09;0.00;0.00;0.62;0.00;0.00;0.62;;;;;25.10;1.00;;;;;;2266152;61;1212;-81
2022/08/03 01:13:44;27078.00;0.09;47.53;0.00;0.00;0.62;;;;;24.90;1.00;;;;;;2266091;61;1383;-81
2022/08/03 01:16:19;44651.00;0.15;77.93;0.00;0.00;0.62;;;;;24.90;1.00;;;;;;2266075;61;1121;-81
2022/08/03 01:18:52;26542.00;0.09;46.60;0.00;0.00;0.62;;;;;24.90;1.00;;;;;;2265638;61;1112;-81
2022/08/03 01:21:27;0.00;0.00;0.62;0.00;0.00;0.62;;;;;25.10;1.00;;;;;;2265518;61;1016;-83
2022/08/03 01:24:07;0.00;0.00;0.62;0.00;0.00;0.62;;;;;25.10;1.00;;;;;;2265252;61;1424;-82
2022/08/03 01:26:57;115781.00;0.39;200.80;0.00;0.00;0.62;;;;;25.00;1.00;;;;;;2265875;61;1180;-82
2022/08/03 01:30:01;0.00;0.00;0.62;0.00;0.00;0.62;;;;;24.90;1.00;;;;;;2265732;61;1117;-82
2022/08/03 01:32:40;0.00;0.00;0.62;0.00;0.00;0.62;;;;;24.70;1.00;;;;;;2264318;61;1149;-81
2022/08/03 01:35:12;0.00;0.00;0.62;0.00;0.00;0.62;;;;;24.40;1.00;;;;;;2265405;61;1433;-81
2022/08/03 01:37:43;0.00;0.00;0.62;0.00;0.00;0.62;;;;;24.40;1.00;;;;;;2265669;61;1160;-82
2022/08/03 01:40:14;0.00;0.00;0.62;0.00;0.00;0.62;;;;;24.60;1.00;;;;;;2265900;61;1106;-81
2022/08/03 01:42:42;38636.00;0.13;67.53;0.00;0.00;0.62;;;;;24.70;1.00;;;;;;2265748;61;1184;-81
2022/08/03 01:45:16;59386.00;0.20;103.42;0.00;0.00;0.62;;;;;24.70;1.00;;;;;;2265805;61;1337;-82
2022/08/03 01:47:45;0.00;0.00;0.62;0.00;0.00;0.62;;;;;24.70;1.00;;;;;;2265525;61;1937;-82
2022/08/03 01:50:14;2883.00;0.01;5.62;0.00;0.00;0.62;;;;;24.70;1.00;;;;;;2265516;61;1159;-83
2022/08/03 01:52:44;0.00;0.00;0.62;0.00;0.00;0.62;;;;;24.70;1.00;;;;;;2265578;61;1242;-82
2022/08/03 01:55:14;0.00;0.00;0.62;0.00;0.00;0.62;;;;;24.60;1.00;;;;;;2265322;61;1372;-83
2022/08/03 01:57:44;0.00;0.00;0.62;0.00;0.00;0.62;;;;;24.40;1.00;;;;;;2265149;61;1124;-82
2022/08/03 02:00:14;62687.00;0.21;109.12;0.00;0.00;0.62;;;;;24.20;1.00;;;;;;2265559;61;1175;-82
2022/08/03 02:02:43;0.00;0.00;0.62;0.00;0.00;0.62;;;;;24.10;1.00;;;;;;2272157;61;1796;-82
2022/08/03 02:05:13;0.00;0.00;0.62;0.00;0.00;0.62;;;;;24.10;1.00;;;;;;2265892;61;1309;-81
2022/08/03 02:07:41;39255.00;0.13;68.60;0.00;0.00;0.62;;;;;24.00;1.00;;;;;;2265573;61;1941;-82
2022/08/03 02:10:12;0.00;0.00;0.62;0.00;0.00;0.62;;;;;24.20;1.00;;;;;;2265527;61;1134;-83
2022/08/03 02:12:42;0.00;0.00;0.62;0.00;0.00;0.62;;;;;24.10;1.00;;;;;;2265657;61;1149;-82
2022/08/03 02:15:12;0.00;0.00;0.62;0.00;0.00;0.62;;;;;23.80;1.00;;;;;;2265973;61;1270;-83
2022/08/03 02:17:39;0.00;0.00;0.62;0.00;0.00;0.62;;;;;24.00;1.00;;;;;;2270295;61;1104;-82
2022/08/03 02:20:08;0.00;0.00;0.62;0.00;0.00;0.62;;;;;24.10;1.00;;;;;;2272454;61;1098;-82
2022/08/03 02:22:39;0.00;0.00;0.62;0.00;0.00;0.62;;;;;24.00;1.00;;;;;;2268000;61;1075;-81
2022/08/03 02:25:07;0.00;0.00;0.62;0.00;0.00;0.62;;;;;24.10;1.00;;;;;;2265662;61;1343;-81
2022/08/03 02:27:38;0.00;0.00;0.62;0.00;0.00;0.62;;;;;24.30;1.00;;;;;;2265500;61;1935;-82
2022/08/03 02:30:09;23659.00;0.08;41.61;0.00;0.00;0.62;;;;;24.30;1.00;;;;;;2265812;61;1093;-83
2022/08/03 02:32:41;74552.00;0.25;129.63;8160.00;0.03;14.76;;;;;24.30;1.00;;;;;;2265713;61;1187;-82
2022/08/03 02:35:12;167887.00;0.56;290.63;0.00;0.00;0.62;;;;;24.30;1.00;;;;;;2265247;61;1531;-82
2022/08/03 02:37:43;0.00;0.00;0.62;0.00;0.00;0.62;;;;;24.00;1.00;;;;;;2265673;61;1054;-81
2022/08/03 02:40:13;0.00;0.00;0.62;0.00;0.00;0.62;;;;;24.10;1.00;;;;;;2265624;61;1613;-83
2022/08/03 02:42:41;110186.00;0.37;191.15;30518.00;0.10;53.48;;;;;24.20;1.00;;;;;;2265353;61;1148;-82
2022/08/03 02:45:12;94228.00;0.31;163.61;28043.00;0.09;49.20;;;;;24.30;1.00;;;;;;2265806;61;1292;-83
2022/08/03 02:47:44;172846.00;0.58;299.17;33091.00;0.11;57.93;;;;;24.30;1.00;;;;;;2265506;61;1942;-81
2022/08/03 02:50:16;0.00;0.00;0.62;0.00;0.00;0.62;;;;;24.20;1.00;;;;;;2265391;61;1191;-81
2022/08/03 02:52:46;0.00;0.00;0.62;0.00;0.00;0.62;;;;;24.10;1.00;;;;;;2265540;61;1156;-81
2022/08/03 02:55:16;0.00;0.00;0.62;0.00;0.00;0.62;;;;;24.30;1.00;;;;;;2265846;61;1334;-82
2022/08/03 02:57:46;0.00;0.00;0.62;0.00;0.00;0.62;;;;;24.20;1.00;;;;;;2267784;61;1236;-81
2022/08/03 03:00:14;12473.00;0.04;22.23;0.00;0.00;0.62;;;;;24.10;1.00;;;;;;2270871;61;1139;-81
2022/08/03 03:02:43;0.00;0.00;0.62;0.00;0.00;0.62;;;;;24.10;1.00;;;;;;2269053;61;1226;-81
2022/08/03 03:05:11;85687.00;0.29;148.86;0.00;0.00;0.62;;;;;24.10;1.00;;;;;;2265232;61;1367;-82
2022/08/03 03:07:41;189112.00;0.63;327.18;51703.00;0.17;90.13;;;;;24.20;1.00;;;;;;2265869;61;1998;-82
2022/08/03 03:10:10;0.00;0.00;0.62;0.00;0.00;0.62;;;;;24.10;1.00;;;;;;2265853;61;1128;-82
2022/08/03 03:12:40;0.00;0.00;0.62;0.00;0.00;0.62;;;;;24.00;1.00;;;;;;2266158;61;1117;-81
2022/08/03 03:15:08;0.00;0.00;0.62;0.00;0.00;0.62;;;;;24.30;1.00;;;;;;2265426;61;1515;-81
2022/08/03 03:17:37;0.00;0.00;0.62;0.00;0.00;0.62;;;;;24.30;1.00;;;;;;2271206;61;1220;-83
2022/08/03 03:20:07;116955.00;0.39;202.83;50703.00;0.17;88.40;;;;;24.10;1.00;;;;;;2267380;61;1152;-82
2022/08/03 03:22:36;0.00;0.00;0.62;0.00;0.00;0.62;;;;;24.10;1.00;;;;;;2265928;61;1107;-82
2022/08/03 03:25:03;23936.00;0.08;42.09;0.00;0.00;0.62;;;;;24.10;1.00;;;;;;2265708;61;1251;-82
2022/08/03 03:27:30;77084.00;0.26;134.00;0.00;0.00;0.62;;;;;24.00;1.00;;;;;;2266053;61;1943;-82
2022/08/03 03:29:58;0.00;0.00;0.62;0.00;0.00;0.62;;;;;23.90;1.00;;;;;;2265336;61;1140;-82
2022/08/03 03:32:26;224768.00;0.75;388.55;37028.00;0.12;64.75;;;;;24.20;1.00;;;;;;2266718;61;1735;-82
2022/08/03 03:34:54;0.00;0.00;0.62;0.00;0.00;0.62;;;;;24.30;1.00;;;;;;2268630;61;1410;-81
2022/08/03 03:37:22;0.00;0.00;0.62;0.00;0.00;0.62;;;;;24.40;1.00;;;;;;2268083;61;1118;-82
2022/08/03 03:39:49;0.00;0.00;0.62;0.00;0.00;0.62;;;;;24.30;1.00;;;;;;2265468;61;1114;-81
2022/08/03 03:42:16;0.00;0.00;0.62;0.00;0.00;0.62;;;;;24.10;1.00;;;;;;2265101;61;1145;-81
2022/08/03 03:44:43;0.00;0.00;0.62;0.00;0.00;0.62;;;;;24.10;1.00;;;;;;2265435;61;1253;-81
2022/08/03 03:47:10;171442.00;0.57;296.75;0.00;0.00;0.62;;;;;23.90;1.00;;;;;;2265597;61;1148;-81
2022/08/03 03:49:37;0.00;0.00;0.62;0.00;0.00;0.62;;;;;23.90;1.00;;;;;;2265593;61;2021;-82
2022/08/03 03:52:04;0.00;0.00;0.62;0.00;0.00;0.62;;;;;24.10;1.00;;;;;;2266088;61;1082;-81
2022/08/03 03:54:41;0.00;0.00;0.62;0.00;0.00;0.62;;;;;24.10;1.00;;;;;;2265668;61;1414;-81
2022/08/03 03:57:09;0.00;0.00;0.62;0.00;0.00;0.62;;;;;24.10;1.00;;;;;;2266001;61;1149;-82
2022/08/03 03:59:38;0.00;0.00;0.62;0.00;0.00;0.62;;;;;24.00;1.00;;;;;;2265938;61;1232;-82
2022/08/03 04:02:06;0.00;0.00;0.62;0.00;0.00;0.62;;;;;23.80;1.00;;;;;;2265910;61;1268;-82
2022/08/03 04:13:03;182145.00;0.61;315.18;66937.00;0.22;116.47;;;;;23.30;1.00;;;;;;2265386;61;1321;-82
2022/08/03 04:15:33;166269.00;0.55;287.84;65421.00;0.22;113.85;;;;;23.40;1.00;;;;;;2265578;61;1085;-81
2022/08/03 04:18:03;165972.00;0.55;287.33;68088.00;0.23;118.46;;;;;23.70;1.00;;;;;;2266049;61;1092;-82
2022/08/03 04:20:35;170275.00;0.57;294.74;51366.00;0.17;89.55;;;;;23.70;1.00;;;;;;2266306;61;1125;-82
2022/08/03 04:23:04;221474.00;0.74;382.88;67242.00;0.22;116.99;;;;;23.60;1.00;;;;;;2265455;61;1407;-82
2022/08/03 04:25:37;165350.00;0.55;286.26;71295.00;0.24;124.00;;;;;23.40;1.00;;;;;;2265367;61;1168;-82
2022/08/03 04:28:05;168995.00;0.56;292.54;66380.00;0.22;115.50;;;;;23.30;1.00;;;;;;2265497;61;2008;-82
2022/08/03 04:30:36;288222.00;0.96;497.67;67768.00;0.23;117.90;;;;;23.50;1.00;;;;;;2265860;61;1124;-82
2022/08/03 04:33:03;167642.00;0.56;290.20;68116.00;0.23;118.50;;;;;23.50;1.00;;;;;;2272541;61;1446;-81
2022/08/03 04:35:33;175263.00;0.58;303.33;58300.00;0.19;101.54;;;;;23.40;1.00;;;;;;2265316;61;1220;-81
2022/08/03 04:38:05;181948.00;0.61;314.84;59269.00;0.20;103.21;;;;;23.40;1.00;;;;;;2265791;61;1110;-82
2022/08/03 04:40:36;319612.00;1.07;551.63;66521.00;0.22;115.75;;;;;23.60;1.00;;;;;;2265810;61;1114;-82
2022/08/03 04:43:04;168583.00;0.56;291.83;58424.00;0.19;101.75;;;;;23.60;1.00;;;;;;2265453;61;1457;-80
2022/08/03 04:45:34;167765.00;0.56;290.42;66927.00;0.22;116.45;;;;;23.70;1.00;;;;;;2265211;61;1134;-81
2022/08/03 04:48:01;343194.00;1.14;592.16;90961.00;0.30;157.97;;;;;23.90;1.00;;;;;;2265411;61;1923;-82
2022/08/03 04:50:28;125612.00;0.42;217.76;50254.00;0.17;87.63;;;;;24.00;1.00;;;;;;2272665;61;1140;-82
2022/08/03 04:52:56;281993.00;0.94;486.96;82251.00;0.27;142.93;;;;;24.10;1.00;;;;;;2272553;61;1052;-82
2022/08/03 04:55:27;1113.00;0.00;2.55;0.00;0.00;0.62;;;;;24.10;1.00;;;;;;2265537;61;2098;-81
2022/08/03 04:57:55;217263.00;0.72;375.63;67464.00;0.22;117.38;;;;;24.20;1.00;;;;;;2265444;61;1060;-82
2022/08/03 05:00:22;377868.00;1.26;651.76;64139.00;0.21;111.63;;;;;24.30;1.00;;;;;;2265661;61;1129;-83
2022/08/03 05:02:49;163765.00;0.55;283.53;68558.00;0.23;119.27;;;;;24.40;1.00;;;;;;2265733;61;1152;-82
2022/08/03 05:05:16;168738.00;0.56;292.09;62443.00;0.21;108.70;;;;;24.40;1.00;;;;;;2265466;61;1270;-81
2022/08/03 05:07:44;169603.00;0.57;293.58;60357.00;0.20;105.09;;;;;24.40;1.00;;;;;;2265400;61;1134;-81
2022/08/03 05:10:12;189055.00;0.63;327.08;68939.00;0.23;119.93;;;;;24.40;1.00;;;;;;2265716;61;2017;-81
2022/08/03 05:12:40;164579.00;0.55;284.93;70407.00;0.23;122.46;;;;;24.30;1.00;;;;;;2265294;61;1642;-81
2022/08/03 05:15:09;208341.00;0.69;360.28;65942.00;0.22;114.75;;;;;24.60;1.00;;;;;;2265353;61;1240;-80
2022/08/03 05:17:36;268000.00;0.89;462.90;68862.00;0.23;119.79;;;;;24.70;1.00;;;;;;2265434;61;1118;-82
2022/08/03 05:20:04;168572.00;0.56;291.81;65333.00;0.22;113.70;;;;;24.60;1.00;;;;;;2267124;61;1169;-81
2022/08/03 05:22:31;274829.00;0.92;474.65;101690.00;0.34;176.49;;;;;24.60;1.00;;;;;;2267088;61;1091;-81
2022/08/03 05:24:58;164281.00;0.55;284.41;70031.00;0.23;121.81;;;;;24.70;1.00;;;;;;2266955;61;1250;-81
2022/08/03 05:27:25;170572.00;0.57;295.25;66244.00;0.22;115.27;;;;;24.70;1.00;;;;;;2266170;61;992;-82
2022/08/03 05:29:52;182302.00;0.61;315.45;54785.00;0.18;95.46;;;;;24.90;1.00;;;;;;2265220;61;1939;-81
2022/08/03 05:32:20;165543.00;0.55;286.59;64421.00;0.21;112.12;;;;;25.00;1.00;;;;;;2265828;61;1163;-82
2022/08/03 05:34:47;462865.00;1.54;797.91;142454.00;0.47;246.80;;;;;24.90;1.00;;;;;;2265663;61;1327;-82
2022/08/03 05:37:14;167374.00;0.56;289.74;62082.00;0.21;108.08;;;;;25.10;1.00;;;;;;2265718;61;1088;-81
2022/08/03 05:39:40;167308.00;0.56;289.63;66680.00;0.22;116.02;;;;;25.10;1.00;;;;;;2266082;61;1151;-82
2022/08/03 05:42:07;163779.00;0.55;283.55;64719.00;0.22;112.63;;;;;25.10;1.00;;;;;;2265282;61;1563;-82
2022/08/03 05:44:37;237068.00;0.79;409.71;69191.00;0.23;120.36;;;;;26.00;1.00;;;;;;2266490;61;1247;-82
2022/08/03 05:47:04;170297.00;0.57;294.78;70813.00;0.24;123.17;;;;;27.50;1.00;;;;;;2271792;61;1031;-83
2022/08/03 05:49:32;220658.00;0.74;381.48;52697.00;0.18;91.85;;;;;29.20;1.00;;;;;;2265621;61;1943;-83
2022/08/03 05:51:59;194252.00;0.65;336.03;64756.00;0.22;112.70;;;;;30.00;1.00;;;;;;2265476;61;1111;-83
2022/08/03 05:54:26;172050.00;0.57;297.80;69231.00;0.23;120.43;;;;;31.00;1.00;;;;;;2265794;61;1315;-83
2022/08/03 05:56:53;229737.00;0.77;397.10;68546.00;0.23;119.25;;;;;32.00;1.00;;;;;;2265915;61;1187;-83
2022/08/03 05:59:20;166372.00;0.55;288.02;49487.00;0.16;86.30;;;;;32.90;1.00;;;;;;2265882;61;1265;-83
2022/08/03 06:01:47;161267.00;0.54;279.22;63536.00;0.21;110.59;;;;;33.30;1.00;;;;;;2270427;61;1545;-84
2022/08/03 06:04:14;164436.00;0.55;284.68;59786.00;0.20;104.11;;;;;34.10;1.00;;;;;;2272310;61;1310;-84
2022/08/03 06:06:42;161053.00;0.54;278.85;55607.00;0.19;96.88;;;;;34.60;1.00;;;;;;2272474;61;1127;-85
2022/08/03 06:09:10;304776.00;1.02;526.13;52897.00;0.18;92.20;;;;;35.00;1.00;;;;;;2272313;61;1910;-83
2022/08/03 06:11:39;270368.00;0.90;466.98;55685.00;0.19;97.02;;;;;35.60;1.00;;;;;;2272384;61;991;-82
2022/08/03 06:14:06;164003.00;0.55;283.94;53669.00;0.18;93.53;;;;;35.10;1.00;;;;;;2272405;61;1410;-84
2022/08/03 06:16:34;170434.00;0.57;295.01;56833.00;0.19;99.00;;;;;35.60;1.00;;;;;;2272481;61;1155;-84
2022/08/03 06:19:01;173776.00;0.58;300.77;48756.00;0.16;85.03;;;;;34.80;1.00;;;;;;2272407;61;2408;-85
2022/08/03 06:21:28;172448.00;0.57;298.48;49116.00;0.16;85.66;;;;;34.80;1.00;;;;;;2272367;61;1067;-84
2022/08/03 06:23:56;256873.00;0.86;443.77;51538.00;0.17;89.85;;;;;35.70;1.00;;;;;;2272301;61;1392;-84
2022/08/03 06:26:24;332714.00;1.11;574.15;81438.00;0.27;141.52;;;;;35.70;1.00;;;;;;2272424;61;1176;-84
2022/08/03 06:28:51;175919.00;0.59;304.46;56958.00;0.19;99.22;;;;;36.70;1.00;;;;;;2272334;61;1986;-83
2022/08/03 06:31:18;165997.00;0.55;287.37;59789.00;0.20;104.11;;;;;37.30;1.00;;;;;;2272393;61;1067;-84
2022/08/03 06:33:45;190514.00;0.64;329.59;48007.00;0.16;83.74;;;;;37.40;1.00;;;;;;2272345;61;1305;-84
2022/08/03 06:36:12;173310.00;0.58;299.97;55502.00;0.19;96.70;;;;;38.00;1.00;;;;;;2272427;61;1085;-85
2022/08/03 06:38:39;170095.00;0.57;294.43;61803.00;0.21;107.59;;;;;38.40;1.00;;;;;;2272340;61;1086;-84
2022/08/03 06:41:07;169332.00;0.56;293.12;55491.00;0.18;96.68;;;;;38.30;1.00;;;;;;2272183;61;1083;-83
2022/08/03 06:43:36;169762.00;0.57;293.86;49890.00;0.17;87.00;;;;;38.50;1.00;;;;;;2272374;61;1384;-85
2022/08/03 06:46:03;184419.00;0.61;319.10;45493.00;0.15;79.39;;;;;38.30;1.00;;;;;;2272338;61;1043;-84
2022/08/03 06:48:31;204175.00;0.68;353.11;55487.00;0.18;96.67;;;;;38.60;1.00;;;;;;2272350;61;1988;-84
2022/08/03 06:50:58;173622.00;0.58;300.51;55143.00;0.18;96.08;;;;;38.70;1.00;;;;;;2272256;61;997;-85
2022/08/03 06:53:25;283292.00;0.94;489.20;102131.00;0.34;177.25;;;;;38.40;1.00;;;;;;2272323;61;1309;-85
2022/08/03 06:55:52;287440.00;0.96;496.33;68694.00;0.23;119.50;;;;;38.60;1.00;;;;;;2272353;61;938;-84
2022/08/03 06:58:20;341204.00;1.14;588.74;75518.00;0.25;131.29;;;;;38.90;1.00;;;;;;2272300;61;1145;-84
2022/08/03 07:00:47;244804.00;0.82;423.01;49570.00;0.17;86.44;;;;;39.10;1.00;;;;;;2272239;61;1079;-85
2022/08/03 07:03:14;169839.00;0.57;293.99;60054.00;0.20;104.57;;;;;39.40;1.00;;;;;;2272142;61;1373;-86
2022/08/03 07:05:42;175865.00;0.59;304.37;26733.00;0.09;46.93;;;;;40.00;1.00;;;;;;2272297;61;1118;-84
2022/08/03 07:08:09;166396.00;0.55;288.06;44218.00;0.15;77.19;;;;;39.10;1.00;;;;;;2272301;61;1019;-83
2022/08/03 07:10:36;218824.00;0.73;378.32;49211.00;0.16;85.82;;;;;39.10;1.00;;;;;;2272189;61;2009;-83
2022/08/03 07:13:03;162906.00;0.54;282.05;52752.00;0.18;91.95;;;;;39.30;1.00;;;;;;2271894;61;1336;-88
2022/08/03 07:15:32;243990.00;0.81;421.61;41293.00;0.14;72.13;;;;;40.10;1.00;;;;;;2271880;61;1007;-88
2022/08/03 07:18:01;187631.00;0.63;324.63;41835.00;0.14;73.06;;;;;40.10;1.00;;;;;;2271708;61;1058;-89
2022/08/03 07:20:28;416641.00;1.39;718.41;61247.00;0.20;106.63;;;;;40.80;1.00;;;;;;2272105;61;1582;-87
2022/08/03 07:22:55;314824.00;1.05;543.40;41541.00;0.14;72.55;;;;;41.30;1.00;;;;;;2272827;61;1018;-87
2022/08/03 07:25:23;700142.00;2.33;1207.48;141780.00;0.47;245.64;;;;;41.00;1.00;;;;;;2272756;61;1302;-87
2022/08/03 07:27:50;395278.00;1.32;681.69;50898.00;0.17;88.74;;;;;41.10;1.00;;;;;;2272907;61;1003;-87
2022/08/03 07:30:17;314978.00;1.05;543.67;38577.00;0.13;67.43;;;;;40.60;1.00;;;;;;2272834;61;1909;-86
2022/08/03 07:32:48;403170.00;1.34;695.25;48085.00;0.16;83.87;;;;;40.80;1.00;;;;;;2272750;61;1462;-87
2022/08/03 07:35:15;324571.00;1.08;560.15;49731.00;0.17;86.72;;;;;40.80;1.00;;;;;;2272822;61;1443;-87
2022/08/03 07:37:42;351428.00;1.17;606.32;49288.00;0.16;85.95;;;;;40.40;1.00;;;;;;2272804;61;1162;-87
2022/08/03 07:40:09;155165.00;0.52;268.71;0.00;0.00;0.62;;;;;40.60;1.00;;;;;;2272702;61;1640;-89
2022/08/03 07:42:37;135902.00;0.45;235.51;0.00;0.00;0.62;;;;;40.20;1.00;;;;;;2272786;61;933;-87
2022/08/03 07:45:04;283401.00;0.94;489.38;0.00;0.00;0.62;;;;;40.60;1.00;;;;;;2272726;61;1596;-87
2022/08/03 07:47:32;186106.00;0.62;322.00;0.00;0.00;0.62;;;;;40.60;1.00;;;;;;2272619;61;1231;-87
2022/08/03 07:50:01;74983.00;0.25;130.37;0.00;0.00;0.62;;;;;41.10;1.00;;;;;;2272634;61;1935;-86
2022/08/03 07:55:14;122117.00;0.41;211.73;0.00;0.00;0.62;;;;;40.60;1.00;;;;;;2272821;61;1365;-87
2022/08/03 07:57:41;130292.00;0.43;225.83;0.00;0.00;0.62;;;;;40.70;1.00;;;;;;2272667;61;1142;-88
2022/08/03 08:00:14;168478.00;0.56;291.64;0.00;0.00;0.62;;;;;40.80;1.00;;;;;;2272831;61;1236;-87
2022/08/03 08:02:41;169585.00;0.57;293.55;27448.00;0.09;48.17;;;;;40.60;1.00;;;;;;2272745;61;1100;-89
2022/08/03 08:05:12;362278.00;1.21;624.96;0.00;0.00;0.62;;;;;40.60;1.00;;;;;;2272787;61;1754;-87
2022/08/03 08:07:41;201968.00;0.67;349.31;0.00;0.00;0.62;;;;;40.30;1.00;;;;;;2272778;61;1492;-89
2022/08/03 08:10:09;0.00;0.00;0.62;0.00;0.00;0.62;;;;;40.00;1.00;;;;;;2272712;61;1911;-88
2022/08/03 08:12:38;230277.00;0.77;398.03;0.00;0.00;0.62;;;;;40.40;1.00;;;;;;2272769;61;1059;-90
2022/08/03 08:15:08;266832.00;0.89;460.90;0.00;0.00;0.62;;;;;40.30;1.00;;;;;;2272605;61;1833;-88
2022/08/03 08:17:42;178154.00;0.59;308.31;0.00;0.00;0.62;;;;;40.70;1.00;;;;;;2272734;61;970;-89
2022/08/03 08:20:16;258925.00;0.86;447.30;0.00;0.00;0.62;;;;;40.80;1.00;;;;;;2272802;61;1218;-87
2022/08/03 08:22:43;309171.00;1.03;533.68;0.00;0.00;0.62;;;;;40.60;1.00;;;;;;2272671;61;1620;-88
2022/08/03 08:25:10;194558.00;0.65;336.56;0.00;0.00;0.62;;;;;40.80;1.00;;;;;;2272631;61;1380;-88
2022/08/03 08:27:43;683174.00;2.28;1178.07;27046.00;0.09;47.47;;;;;40.80;1.00;;;;;;2272525;61;976;-89
2022/08/03 08:30:11;756408.00;2.52;1305.20;117834.00;0.39;204.35;;;;;40.00;1.00;;;;;;2272491;61;1993;-89
2022/08/03 08:32:42;1352571.00;4.51;2368.64;90571.00;0.30;157.29;;;;;39.50;1.00;;;;;;2272661;61;1709;-89
2022/08/03 08:35:12;1178763.00;3.93;2051.87;46518.00;0.16;81.16;;;;;39.80;1.00;;;;;;2274806;40;3644;-89
2022/08/03 08:37:44;1569097.00;5.23;2773.82;91017.00;0.30;158.06;;;;;39.70;1.00;;;;;;2272592;61;1421;-89
2022/08/03 08:40:15;1665493.00;5.55;2958.57;103987.00;0.35;180.45;;;;;39.50;1.00;;;;;;2272572;61;1157;-90
2022/08/03 08:42:44;628487.00;2.09;1083.43;54047.00;0.18;94.18;;;;;39.00;1.00;;;;;;2272733;61;1106;-88
2022/08/03 08:45:13;614703.00;2.05;1059.61;52595.00;0.18;91.67;;;;;38.80;1.00;;;;;;2272422;61;1436;-87
2022/08/03 08:47:45;918665.00;3.06;1588.93;43446.00;0.14;75.85;;;;;38.20;1.00;;;;;;2287637;40;3561;-88
2022/08/03 08:52:54;372108.00;1.24;641.86;31907.00;0.11;55.88;;;;;38.30;1.00;;;;;;718708;59;1915;-87
2022/08/03 08:55:24;553002.00;1.84;953.13;104113.00;0.35;180.67;;;;;38.20;1.00;;;;;;2276321;61;1593;-89
2022/08/03 08:58:13;155578.00;0.52;269.42;0.00;0.00;0.62;;;;;38.00;1.00;;;;;;2276636;61;1026;-89
2022/08/03 09:00:41;397045.00;1.32;684.73;44229.00;0.15;77.20;;;;;38.20;1.00;;;;;;2276528;61;888;-89
2022/08/03 09:03:08;638530.00;2.13;1100.80;99051.00;0.33;171.93;;;;;37.90;1.00;;;;;;2276693;61;1642;-90
2022/08/03 09:05:37;477407.00;1.59;822.94;46215.00;0.15;80.64;;;;;37.50;1.00;;;;;;2276579;61;1555;-90
2022/08/03 09:08:12;369641.00;1.23;637.62;48259.00;0.16;84.18;;;;;37.70;1.00;;;;;;2276763;61;995;-89
2022/08/03 09:10:39;633984.00;2.11;1092.94;46689.00;0.16;81.46;;;;;36.80;1.00;;;;;;2276387;61;2017;-89
2022/08/03 09:13:09;469794.00;1.57;809.84;53621.00;0.18;93.45;;;;;36.40;1.00;;;;;;2276608;61;1599;-87
2022/08/03 09:15:37;405115.00;1.35;698.60;47329.00;0.16;82.57;;;;;35.90;1.00;;;;;;2276688;61;1014;-89
2022/08/03 09:18:11;676505.00;2.26;1166.52;52169.00;0.17;90.94;;;;;35.90;1.00;;;;;;2276757;61;1200;-88
2022/08/03 09:28:13;1216225.00;4.05;2119.58;80225.00;0.27;139.43;;;;;35.10;1.00;;;;;;2275065;61;1305;-89
2022/08/03 09:30:42;400558.00;1.34;690.76;43751.00;0.15;76.38;;;;;34.70;1.00;;;;;;2272572;61;2013;-91
2022/08/03 09:33:11;569016.00;1.90;980.75;81416.00;0.27;141.48;;;;;35.00;1.00;;;;;;2272573;61;1556;-88
2022/08/03 09:38:13;1034269.00;3.45;1793.26;18091.00;0.06;31.96;;;;;34.40;1.00;;;;;;2274340;61;1214;-89
2022/08/03 09:40:42;138271.00;0.46;239.59;0.00;0.00;0.62;;;;;34.50;1.00;;;;;;2272321;61;1021;-88
2022/08/03 09:45:51;1195570.00;3.99;2082.21;0.00;0.00;0.62;;;;;34.20;1.00;;;;;;2300078;56;3651;-88
2022/08/03 09:48:28;528704.00;1.76;911.26;100885.00;0.34;175.10;;;;;34.00;1.00;;;;;;2272359;61;1649;-89
2022/08/03 09:56:01;1193443.00;3.98;2078.37;91651.00;0.31;159.16;;;;;33.40;1.00;;;;;;2274204;61;1412;-89
2022/08/03 10:03:33;1471891.00;4.91;2590.34;54541.00;0.18;95.04;;;;;33.10;1.00;;;;;;2274671;61;1382;-91
2022/08/03 10:06:15;510931.00;1.70;880.65;81798.00;0.27;142.14;;;;;32.90;1.00;;;;;;2297616;39;3728;-89
2022/08/03 10:13:52;837134.00;2.79;1445.96;63911.00;0.21;111.24;;;;;32.50;1.00;;;;;;2333066;40;1806;-89
2022/08/03 10:16:19;821945.00;2.74;1419.42;35693.00;0.12;62.44;;;;;32.30;1.00;;;;;;2297947;39;3584;-90
2022/08/03 10:21:20;1831382.00;6.10;3283.65;75302.00;0.25;130.92;;;;;32.80;1.00;;;;;;1947869;40;3421;-86
2022/08/03 10:23:49;536550.00;1.79;924.78;31269.00;0.10;54.78;;;;;32.60;1.00;;;;;;2272205;61;1595;-90
2022/08/03 10:26:22;915947.00;3.05;1584.15;18998.00;0.06;33.53;;;;;32.50;1.00;;;;;;2272139;61;1086;-90
2022/08/03 10:28:53;1174210.00;3.91;2043.66;63974.00;0.21;111.35;;;;;32.40;1.00;;;;;;2272361;61;979;-88
2022/08/03 10:31:22;797113.00;2.66;1376.09;39829.00;0.13;69.59;;;;;32.20;1.00;;;;;;2272389;61;1973;-89
2022/08/03 10:33:59;605858.00;2.02;1044.34;19805.00;0.07;34.93;;;;;32.40;1.00;;;;;;2272264;61;1405;-89
2022/08/03 10:36:32;442706.00;1.48;763.24;0.00;0.00;0.62;;;;;32.70;1.00;;;;;;2274943;39;3615;-87
2022/08/03 10:39:00;694027.00;2.31;1196.88;89950.00;0.30;156.22;;;;;32.20;1.00;;;;;;2274173;55;3789;-89
2022/08/03 10:41:33;910776.00;3.04;1575.05;44138.00;0.15;77.05;;;;;32.10;1.00;;;;;;2272990;61;1413;-90
2022/08/03 10:44:06;908796.00;3.03;1571.57;71767.00;0.24;124.81;;;;;31.90;1.00;;;;;;2272971;61;1419;-88
2022/08/03 10:46:36;1266869.00;4.22;2211.60;21154.00;0.07;37.27;;;;;32.10;1.00;;;;;;2324146;40;3566;-88